createdAt,value
2017-11-08T00:00:26.533Z,38.35
2017-11-08T00:02:54.055Z,43.60
2017-11-08T00:05:21.717Z,45.75
2017-11-08T00:07:49.439Z,42.35
2017-11-08T00:10:17.033Z,39.50
2017-11-08T00:12:44.549Z,40.53
2017-11-08T00:15:12.122Z,42.13
2017-11-08T00:17:39.734Z,41.37
2017-11-08T00:20:08.019Z,39.17
2017-11-08T00:22:36.314Z,40.83
2017-11-08T00:25:03.824Z,40.45
2017-11-08T00:27:31.333Z,38.72
2017-11-08T00:29:58.873Z,39.75
2017-11-08T00:32:26.549Z,41.55
2017-11-08T00:34:54.137Z,39.25
2017-11-08T00:37:21.711Z,40.55
2017-11-08T00:39:49.273Z,38.47
2017-11-08T00:42:16.881Z,38.22
2017-11-08T00:44:44.404Z,39.72
2017-11-08T00:47:11.962Z,41.40
2017-11-08T00:49:39.508Z,39.92
2017-11-08T00:52:07.074Z,38.00
2017-11-08T00:54:34.615Z,39.05
2017-11-08T00:57:02.155Z,40.47
2017-11-08T00:59:29.688Z,38.30
2017-11-08T01:01:57.237Z,44.00
2017-11-08T01:04:25.656Z,39.53
2017-11-08T01:06:53.217Z,37.90
2017-11-08T01:09:20.779Z,41.75
2017-11-08T01:11:48.324Z,41.40
2017-11-08T01:14:15.916Z,43.15
2017-11-08T01:16:43.488Z,40.42
2017-11-08T01:19:11.078Z,40.95
2017-11-08T01:21:38.613Z,44.22
2017-11-08T01:24:06.195Z,42.88
2017-11-08T01:26:33.721Z,40.00
2017-11-08T01:29:01.277Z,43.40
2017-11-08T01:31:28.845Z,36.28
2017-11-08T01:33:56.442Z,40.78
2017-11-08T01:36:24.748Z,39.53
2017-11-08T01:38:52.285Z,45.58
2017-11-08T01:41:24.538Z,42.13
2017-11-08T01:43:54.901Z,40.65
2017-11-08T01:46:22.477Z,43.53
2017-11-08T01:48:50.004Z,43.63
2017-11-08T01:51:18.349Z,42.25
2017-11-08T01:53:45.886Z,37.35
2017-11-08T01:56:13.433Z,43.75
2017-11-08T01:58:40.975Z,44.60
2017-11-08T02:01:08.553Z,43.28
2017-11-08T02:03:36.127Z,44.85
2017-11-08T02:06:03.642Z,45.95
2017-11-08T02:08:32.009Z,44.05
2017-11-08T02:10:59.521Z,42.70
2017-11-08T02:13:27.058Z,45.05
2017-11-08T02:15:56.375Z,44.63
2017-11-08T02:18:23.934Z,43.92
2017-11-08T02:20:51.462Z,47.47
2017-11-08T02:23:19.729Z,42.17
2017-11-08T02:25:48.047Z,40.42
2017-11-08T02:28:17.532Z,44.30
2017-11-08T02:30:45.099Z,44.28
2017-11-08T02:33:14.610Z,44.88
2017-11-08T02:35:42.170Z,44.63
2017-11-08T02:38:09.707Z,47.88
2017-11-08T02:40:38.014Z,44.55
2017-11-08T02:43:09.371Z,44.72
2017-11-08T02:45:36.935Z,43.00
2017-11-08T02:48:04.459Z,44.60
2017-11-08T02:50:32.793Z,50.40
2017-11-08T02:53:00.358Z,45.08
2017-11-08T02:55:27.906Z,46.67
2017-11-08T02:57:55.463Z,46.67
2017-11-08T03:00:22.988Z,47.05
2017-11-08T03:02:51.674Z,50.35
2017-11-08T03:05:19.211Z,48.08
2017-11-08T03:07:47.507Z,44.53
2017-11-08T03:10:15.077Z,50.30
2017-11-08T03:12:42.610Z,47.70
2017-11-08T03:15:10.906Z,44.42
2017-11-08T03:17:38.440Z,46.60
2017-11-08T03:20:06.747Z,51.70
2017-11-08T03:22:34.272Z,49.70
2017-11-08T03:25:01.779Z,43.47
2017-11-08T03:27:29.326Z,43.50
2017-11-08T03:29:56.856Z,47.95
2017-11-08T03:32:25.305Z,50.65
2017-11-08T03:34:52.846Z,46.80
2017-11-08T03:37:20.391Z,52.08
2017-11-08T03:39:47.906Z,49.35
2017-11-08T03:42:16.207Z,48.40
2017-11-08T03:44:43.849Z,49.42
2017-11-08T03:47:11.395Z,49.95
2017-11-08T03:49:38.927Z,42.88
2017-11-08T03:52:06.444Z,47.20
2017-11-08T03:54:33.971Z,47.75
2017-11-08T03:57:01.554Z,45.35
2017-11-08T03:59:29.859Z,42.58
2017-11-08T04:01:57.406Z,42.80
2017-11-08T04:04:24.938Z,42.70
2017-11-08T04:06:52.561Z,42.13
2017-11-08T04:09:20.087Z,45.55
2017-11-08T04:11:48.367Z,42.20
2017-11-08T04:14:16.670Z,45.90
2017-11-08T04:16:44.199Z,44.08
2017-11-08T04:19:11.723Z,41.75
2017-11-08T04:21:39.277Z,42.90
2017-11-08T04:24:06.807Z,42.13
2017-11-08T04:43:53.392Z,46.83
2017-11-08T04:46:20.943Z,41.28
2017-11-08T04:48:48.497Z,44.75
2017-11-08T04:51:16.071Z,41.47
2017-11-08T04:53:44.359Z,43.67
2017-11-08T04:56:12.654Z,42.20
2017-11-08T04:58:40.191Z,45.33
2017-11-08T05:01:07.786Z,45.30
2017-11-08T05:03:35.299Z,45.08
2017-11-08T05:06:03.654Z,42.50
2017-11-08T05:08:31.169Z,45.65
2017-11-08T05:10:58.742Z,42.65
2017-11-08T05:13:26.344Z,45.90
2017-11-08T05:15:53.875Z,45.33
2017-11-08T05:18:21.410Z,44.75
2017-11-08T05:20:48.942Z,42.75
2017-11-08T05:23:16.487Z,39.85
2017-11-08T05:25:44.010Z,40.60
2017-11-08T05:28:11.537Z,42.80
2017-11-08T05:30:39.989Z,42.30
2017-11-08T05:33:07.546Z,43.70
2017-11-08T05:35:35.112Z,45.38
2017-11-08T05:38:02.639Z,42.78
2017-11-08T05:40:30.182Z,40.78
2017-11-08T05:42:57.746Z,43.75
2017-11-08T05:45:25.296Z,42.45
2017-11-08T05:47:52.791Z,46.37
2017-11-08T05:50:20.301Z,43.33
2017-11-08T05:52:47.828Z,44.30
2017-11-08T05:55:15.341Z,42.97
2017-11-08T05:57:42.865Z,45.40
2017-11-08T06:00:10.394Z,43.53
2017-11-08T06:02:37.921Z,44.30
2017-11-08T06:05:05.892Z,44.95
2017-11-08T06:07:33.419Z,47.67
2017-11-08T06:10:01.724Z,45.22
2017-11-08T06:12:29.284Z,50.28
2017-11-08T06:14:56.822Z,47.38
2017-11-08T06:17:25.251Z,44.70
2017-11-08T06:19:52.785Z,46.80
2017-11-08T06:22:20.321Z,45.78
2017-11-08T06:24:47.868Z,46.33
2017-11-08T06:27:15.403Z,45.78
2017-11-08T06:29:42.981Z,48.25
2017-11-08T06:32:10.503Z,42.95
2017-11-08T06:34:38.043Z,48.85
2017-11-08T06:37:05.591Z,41.40
2017-11-08T06:39:33.126Z,44.03
2017-11-08T06:42:00.688Z,45.47
2017-11-08T06:44:28.990Z,46.85
2017-11-08T06:46:56.512Z,47.85
2017-11-08T06:49:24.082Z,46.50
2017-11-08T06:51:52.396Z,44.10
2017-11-08T06:54:19.936Z,47.85
2017-11-08T06:56:47.459Z,46.60
2017-11-08T06:59:14.977Z,45.60
2017-11-08T07:01:42.516Z,47.25
2017-11-08T07:04:10.065Z,49.10
2017-11-08T07:06:38.383Z,45.38
2017-11-08T07:09:06.020Z,41.40
2017-11-08T07:11:33.557Z,43.65
2017-11-08T07:14:01.089Z,40.35
2017-11-08T07:16:28.747Z,39.30
2017-11-08T07:18:57.081Z,41.88
2017-11-08T07:21:24.638Z,43.75
2017-11-08T07:23:52.194Z,42.65
2017-11-08T07:26:19.716Z,44.55
2017-11-08T07:28:47.251Z,43.10
2017-11-08T07:31:14.762Z,42.10
2017-11-08T07:33:43.083Z,42.88
2017-11-08T07:36:10.607Z,38.22
2017-11-08T07:38:38.168Z,40.58
2017-11-08T07:41:06.479Z,40.12
2017-11-08T07:43:34.036Z,35.63
2017-11-08T07:46:01.558Z,37.60
2017-11-08T07:48:29.907Z,39.63
2017-11-08T07:50:57.406Z,37.60
2017-11-08T07:53:25.858Z,39.00
2017-11-08T07:55:58.960Z,33.25
2017-11-08T07:58:27.281Z,35.10
2017-11-08T08:00:54.801Z,36.45
2017-11-08T08:03:22.310Z,34.75
2017-11-08T08:05:49.834Z,32.88
2017-11-08T08:08:17.415Z,32.38
2017-11-08T08:10:44.969Z,33.58
2017-11-08T08:13:12.505Z,33.35
2017-11-08T08:15:40.057Z,32.05
2017-11-08T08:18:07.610Z,31.90
2017-11-08T08:27:20.831Z,31.40
2017-11-08T08:29:48.361Z,28.70
2017-11-08T08:32:16.649Z,32.10
2017-11-08T08:34:44.962Z,32.08
2017-11-08T08:37:12.484Z,29.98
2017-11-08T08:39:39.993Z,29.85
2017-11-08T08:42:07.508Z,29.87
2017-11-08T08:44:35.084Z,28.58
2017-11-08T08:47:10.058Z,28.58
2017-11-08T08:52:42.676Z,30.52
2017-11-08T08:55:10.291Z,27.23
2017-11-08T08:57:37.808Z,32.20
2017-11-08T09:00:05.333Z,31.45
2017-11-08T09:02:32.863Z,33.30
2017-11-08T09:05:00.384Z,29.80
2017-11-08T09:07:27.923Z,28.87
2017-11-08T09:09:55.453Z,31.98
2017-11-08T09:12:22.965Z,32.28
2017-11-08T09:14:50.498Z,31.17
2017-11-08T09:17:18.070Z,39.22
2017-11-08T09:19:45.609Z,40.00
2017-11-08T09:22:13.302Z,32.78
2017-11-08T09:24:42.402Z,31.30
2017-11-08T09:27:10.679Z,31.00
2017-11-08T09:29:39.776Z,32.95
2017-11-08T09:32:10.038Z,31.83
2017-11-08T09:34:47.546Z,33.33
2017-11-08T09:37:15.079Z,34.25
2017-11-08T09:39:42.620Z,30.65
2017-11-08T09:42:10.142Z,36.92
2017-11-08T09:44:37.673Z,34.67
2017-11-08T09:47:11.691Z,33.38
2017-11-08T09:49:39.336Z,36.22
2017-11-08T09:52:06.891Z,36.30
2017-11-08T09:54:34.428Z,36.33
2017-11-08T09:57:08.465Z,39.95
2017-11-08T09:59:37.769Z,31.42
2017-11-08T10:02:06.150Z,32.83
2017-11-08T10:04:33.650Z,33.00
2017-11-08T10:07:01.181Z,33.92
2017-11-08T10:09:29.681Z,35.13
2017-11-08T10:12:02.110Z,31.95
2017-11-08T10:14:29.649Z,34.08
2017-11-08T10:16:57.935Z,41.47
2017-11-08T10:19:30.043Z,33.58
2017-11-08T10:21:57.561Z,34.70
2017-11-08T10:24:25.153Z,31.77
2017-11-08T10:26:52.665Z,30.35
2017-11-08T10:29:20.985Z,45.40
2017-11-08T10:31:48.507Z,32.83
2017-11-08T10:34:16.069Z,35.40
2017-11-08T10:36:44.362Z,30.25
2017-11-08T10:39:11.944Z,27.67
2017-11-08T10:41:39.502Z,30.37
2017-11-08T10:44:06.984Z,33.70
2017-11-08T10:46:34.561Z,32.22
2017-11-08T10:49:06.026Z,34.65
2017-11-08T10:51:33.581Z,31.58
2017-11-08T10:54:01.144Z,28.15
2017-11-08T10:56:28.692Z,29.52
2017-11-08T10:59:01.023Z,32.20
2017-11-08T11:01:28.556Z,29.63
2017-11-08T11:03:56.067Z,33.42
2017-11-08T11:06:23.585Z,30.48
2017-11-08T11:08:51.131Z,35.08
2017-11-08T11:11:18.709Z,32.63
2017-11-08T11:13:48.028Z,33.45
2017-11-08T11:16:16.373Z,34.97
2017-11-08T11:18:43.910Z,32.55
2017-11-08T11:21:11.441Z,31.87
2017-11-08T11:23:48.521Z,30.95
2017-11-08T11:26:16.852Z,35.33
2017-11-08T11:28:44.384Z,33.55
2017-11-08T11:31:11.918Z,29.58
2017-11-08T11:33:39.448Z,30.85
2017-11-08T11:36:07.008Z,30.85
2017-11-08T11:38:37.225Z,29.80
2017-11-08T11:41:04.751Z,32.47
2017-11-08T11:43:32.263Z,33.03
2017-11-08T11:45:59.805Z,32.38
2017-11-08T11:48:32.136Z,33.38
2017-11-08T11:51:06.089Z,31.77
2017-11-08T11:53:33.601Z,33.60
2017-11-08T11:56:01.137Z,31.48
2017-11-08T11:58:28.686Z,34.97
2017-11-08T12:00:56.958Z,35.67
2017-11-08T12:03:24.538Z,33.40
2017-11-08T12:05:52.083Z,31.52
2017-11-08T12:08:20.257Z,30.88
2017-11-08T12:10:47.770Z,32.80
2017-11-08T12:13:15.296Z,32.10
2017-11-08T12:15:42.829Z,34.00
2017-11-08T12:18:10.335Z,37.88
2017-11-08T12:20:38.627Z,36.28
2017-11-08T12:23:06.142Z,39.90
2017-11-08T12:25:33.660Z,35.28
2017-11-08T12:28:01.259Z,36.47
2017-11-08T12:30:28.784Z,34.95
2017-11-08T12:32:56.368Z,36.40
2017-11-08T12:35:24.799Z,34.42
2017-11-08T12:37:52.355Z,33.10
2017-11-08T12:40:20.673Z,34.17
2017-11-08T12:42:50.158Z,40.25
2017-11-08T12:45:17.701Z,36.28
2017-11-08T12:47:45.393Z,33.38
2017-11-08T12:50:12.921Z,36.60
2017-11-08T12:52:41.311Z,36.00
2017-11-08T12:55:08.880Z,34.78
2017-11-08T12:57:37.280Z,36.80
2017-11-08T13:00:04.843Z,36.55
2017-11-08T13:02:32.494Z,37.22
2017-11-08T13:05:00.035Z,34.95
2017-11-08T13:07:27.832Z,32.83
2017-11-08T13:09:55.406Z,36.88
2017-11-08T13:12:22.934Z,36.50
2017-11-08T13:14:50.453Z,34.70
2017-11-08T13:17:18.008Z,36.83
2017-11-08T13:19:45.520Z,39.30
2017-11-08T13:22:13.038Z,36.78
2017-11-08T13:24:40.547Z,34.53
2017-11-08T13:27:08.077Z,36.13
2017-11-08T13:29:35.680Z,36.42
2017-11-08T13:32:04.056Z,35.58
2017-11-08T13:34:31.581Z,36.15
2017-11-08T13:36:59.209Z,35.30
2017-11-08T13:39:26.737Z,37.08
2017-11-08T13:41:54.295Z,37.53
2017-11-08T13:44:21.826Z,38.30
2017-11-08T13:46:49.384Z,41.13
2017-11-08T13:49:17.660Z,36.78
2017-11-08T13:51:45.976Z,38.40
2017-11-08T13:54:13.505Z,36.63
2017-11-08T13:56:41.055Z,39.40
2017-11-08T13:59:09.432Z,34.60
2017-11-08T14:01:36.963Z,35.85
2017-11-08T14:04:07.313Z,36.35
2017-11-08T14:06:34.966Z,35.60
2017-11-08T14:09:02.476Z,35.63
2017-11-08T14:11:29.997Z,33.75
2017-11-08T14:13:57.557Z,39.38
2017-11-08T14:16:25.874Z,36.17
2017-11-08T14:18:53.397Z,35.67
2017-11-08T14:21:20.932Z,36.20
2017-11-08T14:23:48.472Z,37.67
2017-11-08T14:26:16.011Z,38.47
2017-11-08T14:28:43.589Z,40.35
2017-11-08T14:31:11.160Z,40.60
2017-11-08T14:33:40.538Z,42.97
2017-11-08T14:36:09.023Z,41.47
2017-11-08T14:38:36.541Z,39.83
2017-11-08T14:41:05.387Z,38.90
2017-11-08T14:43:32.953Z,34.95
2017-11-08T14:46:00.536Z,36.97
2017-11-08T14:48:28.126Z,39.92
2017-11-08T14:50:56.903Z,38.65
2017-11-08T14:53:30.002Z,35.20
2017-11-08T14:55:57.602Z,39.17
2017-11-08T14:58:25.233Z,37.22
2017-11-08T15:00:52.755Z,38.50
2017-11-08T15:03:20.293Z,39.08
2017-11-08T15:05:47.834Z,41.75
2017-11-08T15:08:15.467Z,39.22
2017-11-08T15:10:43.008Z,38.13
2017-11-08T15:13:11.301Z,38.75
2017-11-08T15:15:39.642Z,39.65
2017-11-08T15:18:07.160Z,41.15
2017-11-08T15:20:36.577Z,40.38
2017-11-08T15:23:05.165Z,39.35
2017-11-08T15:25:32.671Z,38.00
2017-11-08T15:28:01.065Z,36.97
2017-11-08T15:30:28.600Z,41.20
2017-11-08T15:32:56.152Z,74.03
2017-11-08T15:35:23.700Z,39.70
2017-11-08T15:37:51.281Z,40.50
2017-11-08T15:40:20.883Z,53.15
2017-11-08T15:42:48.446Z,40.78
2017-11-08T15:45:16.029Z,39.95
2017-11-08T15:47:47.261Z,35.35
2017-11-08T15:50:14.859Z,39.83
2017-11-08T15:52:42.365Z,40.08
2017-11-08T15:55:09.972Z,38.30
2017-11-08T15:57:37.482Z,40.50
2017-11-08T16:00:05.022Z,42.70
2017-11-08T16:02:32.566Z,40.10
2017-11-08T16:05:00.089Z,39.88
2017-11-08T16:07:28.385Z,43.17
2017-11-08T16:09:55.928Z,40.47
2017-11-08T16:12:24.266Z,40.83
2017-11-08T16:14:51.837Z,38.75
2017-11-08T16:17:19.340Z,43.25
2017-11-08T16:19:46.869Z,47.60
2017-11-08T16:22:14.455Z,44.05
2017-11-08T16:24:42.773Z,43.83
2017-11-08T16:27:10.292Z,42.70
2017-11-08T16:29:37.973Z,40.28
2017-11-08T16:32:05.527Z,39.13
2017-11-08T16:34:33.054Z,40.58
2017-11-08T16:37:00.953Z,40.78
2017-11-08T16:39:28.498Z,43.47
2017-11-08T16:41:56.796Z,41.78
2017-11-08T16:44:24.658Z,38.08
2017-11-08T16:46:52.172Z,41.65
2017-11-08T16:49:19.912Z,42.15
2017-11-08T16:51:47.780Z,43.92
2017-11-08T16:54:15.320Z,40.03
2017-11-08T16:56:43.614Z,39.33
2017-11-08T16:59:11.179Z,39.55
2017-11-08T17:01:38.730Z,41.17
2017-11-08T17:04:06.257Z,40.85
2017-11-08T17:06:33.815Z,40.83
2017-11-08T17:09:02.176Z,38.97
2017-11-08T17:11:29.721Z,40.30
2017-11-08T17:13:57.237Z,40.25
2017-11-08T17:16:24.829Z,39.92
2017-11-08T17:18:53.688Z,39.95
2017-11-08T17:21:21.267Z,39.95
2017-11-08T17:23:48.780Z,40.15
2017-11-08T17:26:16.450Z,43.08
2017-11-08T17:28:44.182Z,43.60
2017-11-08T17:31:12.549Z,42.15
2017-11-08T17:33:41.090Z,38.65
2017-11-08T17:36:08.650Z,42.53
2017-11-08T17:38:36.475Z,43.60
2017-11-08T17:41:04.181Z,39.25
2017-11-08T17:43:32.201Z,43.15
2017-11-08T17:46:00.577Z,39.10
2017-11-08T17:48:28.968Z,38.00
2017-11-08T17:50:56.548Z,41.63
2017-11-08T17:53:24.891Z,39.50
2017-11-08T17:55:52.407Z,39.55
2017-11-08T17:58:20.851Z,40.90
2017-11-08T18:00:49.152Z,39.47
2017-11-08T18:03:17.524Z,40.42
2017-11-08T18:05:45.039Z,37.13
2017-11-08T18:08:12.549Z,36.70
2017-11-08T18:10:40.275Z,39.53
2017-11-08T18:13:08.419Z,38.42
2017-11-08T18:15:36.082Z,42.92
2017-11-08T18:18:03.697Z,37.92
2017-11-08T18:20:31.318Z,39.05
2017-11-08T18:22:59.023Z,37.80
2017-11-08T18:25:27.771Z,42.30
2017-11-08T18:27:55.313Z,40.22
2017-11-08T18:30:22.832Z,40.83
2017-11-08T18:32:50.418Z,39.45
2017-11-08T18:35:17.952Z,40.22
2017-11-08T18:37:45.563Z,44.75
2017-11-08T18:40:13.108Z,45.58
2017-11-08T18:42:41.424Z,44.63
2017-11-08T18:45:09.980Z,43.97
2017-11-08T18:47:37.563Z,43.20
2017-11-08T18:50:05.114Z,39.30
2017-11-08T18:52:32.680Z,41.33
2017-11-08T18:55:01.447Z,37.42
2017-11-08T18:57:28.990Z,42.08
2017-11-08T18:59:57.591Z,39.83
2017-11-08T19:02:25.122Z,37.72
2017-11-08T19:04:53.535Z,40.45
2017-11-08T19:07:21.065Z,39.10
2017-11-08T19:09:48.722Z,41.47
2017-11-08T19:12:16.252Z,45.00
2017-11-08T19:14:43.973Z,40.25
2017-11-08T19:17:11.847Z,42.65
2017-11-08T19:19:39.667Z,40.78
2017-11-08T19:22:07.533Z,41.10
2017-11-08T19:24:35.825Z,41.53
2017-11-08T19:27:03.592Z,41.78
2017-11-08T19:29:31.332Z,43.53
2017-11-08T19:32:00.537Z,40.47
2017-11-08T19:34:28.040Z,39.80
2017-11-08T19:36:56.489Z,41.17
2017-11-08T19:39:24.251Z,42.58
2017-11-08T19:41:52.534Z,45.35
2017-11-08T19:44:20.293Z,47.55
2017-11-08T19:46:47.820Z,39.97
2017-11-08T19:49:16.177Z,40.45
2017-11-08T19:51:43.982Z,39.20
2017-11-08T19:54:12.325Z,48.83
2017-11-08T19:56:39.943Z,41.05
2017-11-08T19:59:08.201Z,39.05
2017-11-08T20:01:36.536Z,38.53
2017-11-08T20:04:04.205Z,36.97
2017-11-08T20:06:31.740Z,38.20
2017-11-08T20:08:59.465Z,38.13
2017-11-08T20:11:27.742Z,38.72
2017-11-08T20:13:56.230Z,40.80
2017-11-08T20:16:24.932Z,40.28
2017-11-08T20:18:54.183Z,53.92
2017-11-08T20:21:21.805Z,37.35
2017-11-08T20:23:49.526Z,39.97
2017-11-08T20:26:17.103Z,35.53
2017-11-08T20:28:44.682Z,39.15
2017-11-08T20:31:13.105Z,35.95
2017-11-08T20:33:40.899Z,42.95
2017-11-08T20:36:10.182Z,45.12
2017-11-08T20:38:38.782Z,41.50
2017-11-08T20:41:07.184Z,40.88
2017-11-08T20:43:34.760Z,34.50
2017-11-08T20:46:04.056Z,40.08
2017-11-08T20:48:31.665Z,37.30
2017-11-08T20:50:59.805Z,35.80
2017-11-08T20:53:32.951Z,39.13
2017-11-08T20:56:03.563Z,39.90
2017-11-08T20:58:31.970Z,38.05
2017-11-08T21:00:59.544Z,38.95
2017-11-08T21:03:28.825Z,48.05
2017-11-08T21:05:56.462Z,40.08
2017-11-08T21:08:24.135Z,40.97
2017-11-08T21:10:51.740Z,39.97
2017-11-08T21:13:19.611Z,37.83
2017-11-08T21:15:47.213Z,41.97
2017-11-08T21:18:14.932Z,41.70
2017-11-08T21:20:42.832Z,41.30
2017-11-08T21:23:10.379Z,40.15
2017-11-08T21:25:38.696Z,36.85
2017-11-08T21:28:09.091Z,40.12
2017-11-08T21:30:36.918Z,37.22
2017-11-08T21:33:04.515Z,38.40
2017-11-08T21:35:32.091Z,38.28
2017-11-08T21:37:59.697Z,37.95
2017-11-08T21:40:29.145Z,38.20
2017-11-08T21:42:56.677Z,39.42
2017-11-08T21:45:25.208Z,38.53
2017-11-08T21:47:52.733Z,36.00
2017-11-08T21:50:21.332Z,36.65
2017-11-08T21:52:49.067Z,38.80
2017-11-08T21:55:17.572Z,39.50
2017-11-08T21:57:46.089Z,36.10
2017-11-08T22:00:16.065Z,39.58
2017-11-08T22:02:43.589Z,37.88
2017-11-08T22:05:11.319Z,45.65
2017-11-08T22:07:39.787Z,39.28
2017-11-08T22:10:07.332Z,38.72
2017-11-08T22:12:34.993Z,40.20
2017-11-08T22:15:02.758Z,38.50
2017-11-08T22:17:30.988Z,39.72
2017-11-08T22:19:59.283Z,38.60
2017-11-08T22:22:26.834Z,37.97
2017-11-08T22:24:55.328Z,40.22
2017-11-08T22:27:23.670Z,44.38
2017-11-08T22:29:51.283Z,41.22
2017-11-08T22:32:20.202Z,41.85
2017-11-08T22:34:48.154Z,42.35
2017-11-08T22:37:16.745Z,38.88
2017-11-08T22:39:45.389Z,37.97
2017-11-08T22:42:13.675Z,40.70
2017-11-08T22:44:42.164Z,40.00
2017-11-08T22:47:09.899Z,39.67
2017-11-08T22:49:38.408Z,38.35
2017-11-08T22:52:06.918Z,40.30
2017-11-08T22:54:34.435Z,41.58
2017-11-08T22:57:02.789Z,42.45
2017-11-08T22:59:30.880Z,40.97
2017-11-08T23:01:59.401Z,40.35
2017-11-08T23:04:27.854Z,41.85
2017-11-08T23:06:56.051Z,41.83
2017-11-08T23:09:24.534Z,40.95
2017-11-08T23:11:52.055Z,41.85
2017-11-08T23:14:19.602Z,42.05
2017-11-08T23:16:47.096Z,39.67
2017-11-08T23:19:14.628Z,41.85
2017-11-08T23:21:42.155Z,40.17
2017-11-08T23:24:09.677Z,40.90
2017-11-08T23:26:37.960Z,41.85
2017-11-08T23:29:05.487Z,40.08
2017-11-08T23:31:33.024Z,39.28
2017-11-08T23:34:00.565Z,40.17
2017-11-08T23:36:28.100Z,39.55
2017-11-08T23:38:55.615Z,43.95
2017-11-08T23:41:23.182Z,43.42
2017-11-08T23:43:50.889Z,39.75
2017-11-08T23:46:18.421Z,43.05
2017-11-08T23:48:45.983Z,39.17
2017-11-08T23:51:15.445Z,43.42
2017-11-08T23:53:44.921Z,44.70
2017-11-08T23:56:12.427Z,45.20
2017-11-08T23:58:39.943Z,45.80
